Time;durP1;ratioP1;P1;durP2;ratioP2;P2;SDS_P1;SDS_P2;PMS_P1;PMS_P2;Temp;Humidity;BMP_temperature;BMP_pressure;BME280_temperature;BME280_humidity;BME280_pressure;Samples;Min_cycle;Max_cycle;Signal;HPM_P1;HPM_P2
2022/01/07 00:00:02;;;;;;;47.22;15.77;;;;;;;0.96;100.00;100766.72;7398671;19;20123;-50
2022/01/07 00:02:34;;;;;;;55.97;19.58;;;;;;;0.97;100.00;100753.25;7394662;19;20255;-52
2022/01/07 00:05:04;;;;;;;50.17;17.70;;;;;;;0.87;100.00;100747.41;7402249;19;20182;-48
2022/01/07 00:07:34;;;;;;;53.42;18.55;;;;;;;0.89;100.00;100743.38;7395616;19;20245;-48
2022/01/07 00:10:04;;;;;;;45.40;17.38;;;;;;;0.86;100.00;100740.56;7398884;19;20129;-50
2022/01/07 00:12:33;;;;;;;45.40;19.05;;;;;;;0.88;100.00;100733.94;7392976;19;20241;-50
2022/01/07 00:15:03;;;;;;;45.55;17.17;;;;;;;0.87;100.00;100727.09;7399074;19;20455;-49
2022/01/07 00:17:36;;;;;;;47.40;16.02;;;;;;;0.95;100.00;100742.97;7392505;19;20273;-49
2022/01/07 00:20:08;;;;;;;44.60;13.85;;;;;;;0.88;100.00;100736.47;7397111;19;20123;-46
2022/01/07 00:22:38;;;;;;;43.03;17.23;;;;;;;0.89;100.00;100724.69;7396376;19;20199;-51
2022/01/07 00:25:09;;;;;;;43.83;17.92;;;;;;;0.88;100.00;100720.38;7398830;19;20182;-48
2022/01/07 00:27:39;;;;;;;36.60;13.15;;;;;;;0.86;100.00;100715.16;7393158;19;20193;-50
2022/01/07 00:30:12;;;;;;;49.78;16.88;;;;;;;0.86;100.00;100712.59;7398665;19;20143;-49
2022/01/07 00:32:44;;;;;;;61.80;18.48;;;;;;;0.87;100.00;100714.38;7394717;19;20514;-50
2022/01/07 00:35:16;;;;;;;39.13;16.98;;;;;;;0.90;100.00;100718.81;7398952;19;20149;-52
2022/01/07 00:37:49;;;;;;;34.70;14.15;;;;;;;0.90;100.00;100714.66;7393289;19;20242;-48
2022/01/07 00:40:21;;;;;;;52.50;17.60;;;;;;;0.96;100.00;100710.81;7398355;19;20121;-46
2022/01/07 00:42:51;;;;;;;33.80;14.57;;;;;;;0.96;100.00;100710.81;7388271;19;20452;-46
2022/01/07 00:45:22;;;;;;;30.58;10.48;;;;;;;0.96;100.00;100704.06;7402008;19;20411;-48
2022/01/07 00:47:55;;;;;;;34.47;13.30;;;;;;;1.00;100.00;100702.66;7395782;19;20261;-53
2022/01/07 00:50:26;;;;;;;29.48;10.43;;;;;;;0.89;100.00;100699.28;7401943;19;20126;-50
2022/01/07 00:52:56;;;;;;;50.25;17.17;;;;;;;0.96;100.00;100686.28;7397353;19;20183;-51
2022/01/07 00:55:26;;;;;;;23.60;10.65;;;;;;;0.87;100.00;100696.59;7401680;19;20125;-47
2022/01/07 00:57:56;;;;;;;54.17;17.13;;;;;;;0.93;100.00;100692.00;7396039;19;20619;-47
2022/01/07 01:00:28;;;;;;;41.45;17.92;;;;;;;0.96;100.00;100680.34;7401865;19;20175;-50
2022/01/07 01:03:00;;;;;;;37.45;13.57;;;;;;;0.98;100.00;100682.22;7396820;19;20612;-48
2022/01/07 01:05:32;;;;;;;29.88;11.07;;;;;;;0.95;100.00;100679.44;7401737;19;20385;-46
2022/01/07 01:08:02;;;;;;;34.65;10.60;;;;;;;0.94;100.00;100683.63;7395509;19;20589;-48
2022/01/07 01:10:31;;;;;;;29.98;12.57;;;;;;;0.91;100.00;100673.22;7400651;19;20129;-49
2022/01/07 01:13:01;;;;;;;35.65;13.90;;;;;;;0.91;100.00;100667.25;7397042;19;20645;-50
2022/01/07 01:15:30;;;;;;;37.55;12.20;;;;;;;0.93;100.00;100670.81;7399964;19;20146;-49
2022/01/07 01:18:03;;;;;;;49.78;13.75;;;;;;;0.87;100.00;100670.31;7396532;19;20194;-51
2022/01/07 01:20:32;;;;;;;37.35;14.13;;;;;;;0.91;100.00;100670.69;7400327;19;20174;-52
2022/01/07 01:23:02;;;;;;;32.00;13.50;;;;;;;0.88;100.00;100678.03;7396557;19;20255;-53
2022/01/07 01:25:32;;;;;;;43.40;17.33;;;;;;;0.97;100.00;100661.78;7399757;19;20136;-48
2022/01/07 01:28:01;;;;;;;33.10;10.70;;;;;;;0.88;100.00;100672.97;7393927;19;20562;-47
2022/01/07 01:30:33;;;;;;;17.83;7.35;;;;;;;0.82;100.00;100657.22;7400516;19;20214;-51
2022/01/07 01:33:05;;;;;;;21.77;8.35;;;;;;;0.79;100.00;100657.00;7399102;19;20186;-49
2022/01/07 01:35:37;;;;;;;40.97;15.18;;;;;;;0.85;100.00;100649.88;7407739;19;20193;-48
2022/01/07 01:38:06;;;;;;;27.25;10.38;;;;;;;0.82;100.00;100644.53;7401543;19;20473;-46
2022/01/07 01:40:36;;;;;;;42.15;17.23;;;;;;;0.92;100.00;100630.94;7407589;19;20608;-47
2022/01/07 01:43:06;;;;;;;41.97;15.55;;;;;;;0.89;100.00;100636.66;7403714;19;20266;-50
2022/01/07 01:45:35;;;;;;;38.47;15.20;;;;;;;0.84;100.00;100624.34;7407514;19;20179;-51
2022/01/07 01:48:08;;;;;;;33.10;10.80;;;;;;;0.87;100.00;100625.47;7400227;19;20194;-51
2022/01/07 01:50:37;;;;;;;18.13;6.82;;;;;;;0.88;100.00;100624.69;7407235;19;20120;-51
2022/01/07 01:53:07;;;;;;;33.47;12.65;;;;;;;0.90;100.00;100627.34;7398744;19;20193;-48
2022/01/07 01:55:36;;;;;;;44.53;11.02;;;;;;;0.91;100.00;100621.50;7402837;19;20131;-47
2022/01/07 01:58:06;;;;;;;20.92;7.70;;;;;;;0.91;100.00;100626.59;7395057;19;20246;-49
2022/01/07 02:00:36;;;;;;;36.75;13.40;;;;;;;0.96;100.00;100614.28;7403351;19;20383;-47
2022/01/07 02:03:09;;;;;;;30.02;12.32;;;;;;;0.94;100.00;100617.56;7399048;19;20498;-46
2022/01/07 02:05:38;;;;;;;32.60;11.65;;;;;;;0.98;100.00;100608.53;7403362;19;20144;-46
2022/01/07 02:08:08;;;;;;;37.28;12.07;;;;;;;1.03;100.00;100601.28;7398151;19;20250;-50
2022/01/07 02:10:37;;;;;;;29.10;10.43;;;;;;;1.01;100.00;100603.69;7406019;19;20520;-52
2022/01/07 02:13:07;;;;;;;28.25;8.25;;;;;;;0.98;100.00;100602.56;7401897;19;20245;-51
2022/01/07 02:15:37;;;;;;;35.22;13.20;;;;;;;1.04;100.00;100592.88;7405033;19;20130;-46
2022/01/07 02:20:50;;;;;;;38.63;12.50;;;;;;;1.03;100.00;100596.19;7399549;19;20149;-45
2022/01/07 02:23:21;;;;;;;34.65;11.23;;;;;;;1.00;100.00;100596.84;7401873;19;20475;-49
2022/01/07 02:25:52;;;;;;;27.98;9.30;;;;;;;1.10;100.00;100595.00;7406313;19;20129;-49
2022/01/07 02:28:21;;;;;;;15.75;5.45;;;;;;;1.04;100.00;100590.34;7399703;19;20464;-48
2022/01/07 02:30:51;;;;;;;29.05;10.48;;;;;;;1.08;100.00;100587.28;7405858;19;20442;-45
2022/01/07 02:33:20;;;;;;;26.08;8.45;;;;;;;1.04;100.00;100588.66;7402395;19;20193;-48
2022/01/07 02:35:52;;;;;;;20.20;7.43;;;;;;;1.03;100.00;100581.81;7406387;19;20123;-49
2022/01/07 02:38:22;;;;;;;19.13;8.57;;;;;;;1.08;100.00;100579.66;7400592;19;20209;-48
2022/01/07 02:40:51;;;;;;;20.65;5.60;;;;;;;1.14;100.00;100581.75;7405617;19;20133;-49
2022/01/07 02:43:21;;;;;;;24.30;8.18;;;;;;;1.15;100.00;100570.81;7400592;19;20189;-45
2022/01/07 02:45:50;;;;;;;18.00;6.35;;;;;;;1.17;100.00;100575.25;7406443;19;20136;-45
2022/01/07 02:48:20;;;;;;;17.77;4.47;;;;;;;1.05;100.00;100576.84;7399258;19;20194;-45
2022/01/07 02:50:52;;;;;;;20.50;6.55;;;;;;;1.16;100.00;100565.88;7404710;19;20127;-45
2022/01/07 02:53:22;;;;;;;20.73;7.43;;;;;;;1.21;100.00;100556.03;7400608;19;20624;-46
2022/01/07 02:55:51;;;;;;;23.13;6.80;;;;;;;1.17;100.00;100546.41;7405225;19;20149;-48
2022/01/07 02:58:21;;;;;;;16.45;6.80;;;;;;;1.24;100.00;100556.28;7399660;19;20659;-49
2022/01/07 03:00:50;;;;;;;22.70;9.35;;;;;;;1.25;100.00;100558.06;7405198;19;20135;-47
2022/01/07 03:03:20;;;;;;;19.42;6.70;;;;;;;1.24;100.00;100555.38;7401160;19;20207;-45
2022/01/07 03:05:49;;;;;;;14.82;6.20;;;;;;;1.20;100.00;100549.19;7405312;19;20123;-47
2022/01/07 03:08:21;;;;;;;19.13;7.55;;;;;;;1.24;100.00;100550.31;7399135;19;20194;-48
2022/01/07 03:10:51;;;;;;;22.73;8.65;;;;;;;1.28;100.00;100542.16;7403758;19;20123;-46
2022/01/07 03:13:20;;;;;;;20.33;6.88;;;;;;;1.26;100.00;100546.22;7396556;19;20460;-47
2022/01/07 03:15:50;;;;;;;23.13;9.07;;;;;;;1.34;100.00;100532.44;7404290;19;20166;-46
2022/01/07 03:18:19;;;;;;;26.13;7.15;;;;;;;1.33;100.00;100535.75;7395730;19;20194;-48
2022/01/07 03:20:49;;;;;;;19.67;5.82;;;;;;;1.25;100.00;100542.81;7402240;19;20131;-47
2022/01/07 03:23:21;;;;;;;9.05;3.38;;;;;;;1.21;100.00;100526.44;7399652;19;20186;-49
2022/01/07 03:25:51;;;;;;;15.25;5.93;;;;;;;1.30;100.00;100530.44;7400771;19;20447;-46
2022/01/07 03:28:20;;;;;;;19.98;5.60;;;;;;;1.28;100.00;100531.97;7397304;19;20255;-50
2022/01/07 03:30:50;;;;;;;14.20;4.53;;;;;;;1.32;100.00;100516.16;7404108;19;20127;-45
2022/01/07 03:33:20;;;;;;;17.00;6.07;;;;;;;1.31;100.00;100525.47;7399731;19;20495;-46
2022/01/07 03:35:49;;;;;;;12.90;5.60;;;;;;;1.31;100.00;100537.28;7400023;19;20123;-45
2022/01/07 03:38:22;;;;;;;21.38;6.95;;;;;;;1.33;100.00;100521.38;7395201;19;20190;-47
2022/01/07 03:40:52;;;;;;;11.60;3.88;;;;;;;1.32;100.00;100531.44;7399355;19;20123;-51
2022/01/07 03:43:21;;;;;;;15.30;7.00;;;;;;;1.40;100.00;100525.28;7396281;19;20306;-46
2022/01/07 03:45:51;;;;;;;19.23;4.75;;;;;;;1.34;100.00;100522.28;7398896;19;20127;-48
2022/01/07 03:48:21;;;;;;;15.05;6.18;;;;;;;1.42;100.00;100511.00;7392839;19;20510;-47
2022/01/07 03:50:50;;;;;;;27.93;7.50;;;;;;;1.46;100.00;100507.03;7399341;19;20123;-48
2022/01/07 03:53:24;;;;;;;20.42;7.22;;;;;;;1.48;100.00;100511.47;7395632;19;20407;-52
2022/01/07 03:55:54;;;;;;;16.98;6.95;;;;;;;1.45;100.00;100521.41;7401799;19;20127;-51
2022/01/07 03:58:24;;;;;;;14.13;5.32;;;;;;;1.43;100.00;100519.53;7397686;19;20211;-48
2022/01/07 04:00:54;;;;;;;18.13;4.75;;;;;;;1.38;100.00;100516.63;7403024;19;20140;-48
2022/01/07 04:03:23;;;;;;;6.80;3.28;;;;;;;1.44;100.00;100514.53;7399084;19;20188;-45
2022/01/07 04:05:53;;;;;;;17.45;5.13;;;;;;;1.42;100.00;100526.28;7403136;19;20122;-47
2022/01/07 04:08:25;;;;;;;13.65;5.35;;;;;;;1.41;100.00;100516.88;7398099;19;20190;-50
2022/01/07 04:10:54;;;;;;;14.90;4.57;;;;;;;1.46;100.00;100513.03;7402985;19;20130;-51
2022/01/07 04:13:24;;;;;;;24.27;5.70;;;;;;;1.42;100.00;100516.09;7398462;19;20241;-49
2022/01/07 04:15:53;;;;;;;22.70;6.45;;;;;;;1.47;100.00;100508.81;7402927;19;20123;-51
2022/01/07 04:18:23;;;;;;;10.65;3.38;;;;;;;1.37;100.00;100514.00;7396607;19;20198;-49
2022/01/07 04:20:52;;;;;;;8.77;3.08;;;;;;;1.32;100.00;100511.09;7402020;19;20174;-45
2022/01/07 04:23:24;;;;;;;9.47;3.13;;;;;;;1.27;100.00;100504.78;7398721;19;20181;-48
2022/01/07 04:25:54;;;;;;;17.20;6.85;;;;;;;1.27;100.00;100497.16;7402533;19;20401;-46
2022/01/07 04:28:23;;;;;;;33.15;6.75;;;;;;;1.20;100.00;100499.25;7396851;19;20254;-47
2022/01/07 04:30:53;;;;;;;31.90;4.40;;;;;;;0.90;100.00;100493.59;7402299;19;20149;-48
2022/01/07 04:33:26;;;;;;;12.50;5.80;;;;;;;0.83;100.00;100486.28;7398687;19;20178;-47
2022/01/07 04:35:57;;;;;;;16.13;4.85;;;;;;;0.70;100.00;100488.63;7402433;19;20134;-49
2022/01/07 04:38:29;;;;;;;22.75;5.90;;;;;;;0.70;100.00;100465.78;7396643;19;20192;-47
2022/01/07 04:40:58;;;;;;;14.00;6.82;;;;;;;0.60;100.00;100457.47;7402035;19;20119;-48
2022/01/07 04:43:28;;;;;;;15.48;5.88;;;;;;;0.51;100.00;100452.56;7398012;19;20580;-49
2022/01/07 04:45:58;;;;;;;12.75;5.30;;;;;;;0.45;100.00;100454.63;7401053;19;20119;-45
2022/01/07 04:48:27;;;;;;;12.38;3.80;;;;;;;0.32;100.00;100442.66;7395895;19;20576;-49
2022/01/07 04:50:57;;;;;;;20.95;6.07;;;;;;;0.31;100.00;100438.31;7401790;19;20209;-46
2022/01/07 04:53:29;;;;;;;13.35;4.53;;;;;;;0.22;100.00;100425.81;7397947;19;20674;-46
2022/01/07 04:55:59;;;;;;;18.60;7.38;;;;;;;0.24;100.00;100416.66;7402033;19;20123;-47
2022/01/07 04:58:29;;;;;;;19.15;7.43;;;;;;;0.23;100.00;100411.47;7395969;19;20550;-46
2022/01/07 05:00:58;;;;;;;16.13;7.05;;;;;;;0.11;100.00;100398.72;7401073;19;20142;-45
2022/01/07 05:03:28;;;;;;;21.00;7.47;;;;;;;0.06;100.00;100387.31;7397400;19;20191;-49
2022/01/07 05:06:09;;;;;;;15.82;6.50;;;;;;;0.01;100.00;100386.97;7401694;19;20175;-50
2022/01/07 05:08:42;;;;;;;14.52;6.15;;;;;;;-0.04;100.00;100378.09;7401376;19;20192;-48
2022/01/07 05:11:11;;;;;;;22.48;8.50;;;;;;;-0.01;100.00;100365.63;7408926;19;20463;-47
2022/01/07 05:13:40;;;;;;;26.48;10.23;;;;;;;-0.03;100.00;100357.03;7404907;19;20250;-47
2022/01/07 05:16:10;;;;;;;28.55;10.93;;;;;;;0.02;100.00;100353.22;7408764;19;20140;-46
2022/01/07 05:18:40;;;;;;;38.20;13.50;;;;;;;0.03;100.00;100337.22;7401779;19;20449;-53
2022/01/07 05:21:09;;;;;;;15.90;6.75;;;;;;;0.05;100.00;100345.81;7407222;19;20186;-45
2022/01/07 05:23:41;;;;;;;19.02;8.02;;;;;;;0.08;100.00;100337.56;7404849;19;20450;-46
2022/01/07 05:26:11;;;;;;;27.65;10.00;;;;;;;0.13;100.00;100336.28;7408299;19;20131;-48
2022/01/07 05:28:40;;;;;;;25.63;8.35;;;;;;;0.16;100.00;100325.47;7405378;19;20190;-50
2022/01/07 05:31:10;;;;;;;15.80;6.95;;;;;;;0.15;100.00;100328.78;7408820;19;20202;-50
2022/01/07 05:33:39;;;;;;;25.90;9.32;;;;;;;0.17;100.00;100322.16;7406860;19;20205;-47
2022/01/07 05:36:09;;;;;;;25.25;11.07;;;;;;;0.18;100.00;100318.84;7407949;19;20129;-45
2022/01/07 05:38:38;;;;;;;23.20;9.45;;;;;;;0.19;100.00;100305.41;7404813;19;20533;-51
2022/01/07 05:41:10;;;;;;;19.38;7.93;;;;;;;0.16;100.00;100306.06;7407963;19;20525;-51
2022/01/07 05:43:40;;;;;;;21.25;8.13;;;;;;;0.20;100.00;100307.19;7402345;19;20509;-47
2022/01/07 05:46:13;;;;;;;8.52;4.93;;;;;;;0.13;100.00;100310.91;7401435;19;20142;-45
2022/01/07 05:48:43;;;;;;;24.27;7.38;;;;;;;0.16;100.00;100300.09;7394952;19;20193;-45
2022/01/07 05:51:12;;;;;;;19.48;9.73;;;;;;;0.19;100.00;100290.16;7400970;19;20119;-47
2022/01/07 05:53:42;;;;;;;24.35;11.45;;;;;;;0.25;100.00;100285.56;7399357;19;20175;-46
2022/01/07 05:56:14;;;;;;;11.95;5.43;;;;;;;0.09;100.00;100286.94;7401693;19;20414;-47
2022/01/07 05:58:44;;;;;;;16.58;7.32;;;;;;;0.07;100.00;100285.06;7397205;19;20203;-46
2022/01/07 06:01:13;;;;;;;15.32;6.70;;;;;;;0.12;100.00;100271.06;7397047;19;20186;-47
2022/01/07 06:03:43;;;;;;;14.70;7.00;;;;;;;0.11;100.00;100266.78;7401548;19;20123;-46
2022/01/07 06:06:13;;;;;;;14.70;7.22;;;;;;;0.15;100.00;100266.22;7397406;19;20179;-49
2022/01/07 06:08:43;;;;;;;18.25;6.38;;;;;;;0.16;100.00;100259.50;7399441;19;20202;-47
2022/01/07 06:11:15;;;;;;;26.70;12.00;;;;;;;0.19;100.00;100254.63;7399069;19;20119;-48
2022/01/07 06:13:44;;;;;;;17.80;7.28;;;;;;;0.18;100.00;100251.25;7399602;19;20178;-47
2022/01/07 06:16:14;;;;;;;14.85;6.50;;;;;;;0.17;100.00;100243.50;7397849;19;20127;-45
2022/01/07 06:18:50;;;;;;;17.60;8.25;;;;;;;0.19;100.00;100241.94;7401841;19;20450;-47
2022/01/07 06:21:20;;;;;;;14.20;6.53;;;;;;;0.14;100.00;100236.53;7398122;19;20439;-45
2022/01/07 06:23:50;;;;;;;28.13;12.27;;;;;;;0.21;100.00;100230.28;7400211;19;20123;-49
2022/01/07 06:26:22;;;;;;;14.43;6.75;;;;;;;0.20;100.00;100223.44;7397428;19;20678;-47
2022/01/07 06:28:51;;;;;;;15.77;5.57;;;;;;;0.19;100.00;100219.13;7398679;19;20155;-47
2022/01/07 06:31:21;;;;;;;27.92;8.82;;;;;;;0.23;100.00;100223.66;7396211;19;20125;-49
2022/01/07 06:33:50;;;;;;;23.77;11.30;;;;;;;0.32;100.00;100221.81;7400733;19;20119;-48
2022/01/07 06:36:20;;;;;;;20.42;8.75;;;;;;;0.30;100.00;100217.41;7397039;19;20123;-47
2022/01/07 06:38:49;;;;;;;16.40;8.82;;;;;;;0.30;100.00;100222.47;7398742;19;20159;-48
2022/01/07 06:41:21;;;;;;;12.02;5.68;;;;;;;0.28;100.00;100219.81;7397997;19;20127;-45
2022/01/07 06:43:51;;;;;;;31.40;15.43;;;;;;;0.34;100.00;100222.81;7400765;19;20544;-46
2022/01/07 06:46:20;;;;;;;21.95;10.23;;;;;;;0.34;100.00;100212.66;7398085;19;20130;-50
2022/01/07 06:48:50;;;;;;;16.90;10.10;;;;;;;0.35;100.00;100216.97;7398936;19;20179;-45
2022/01/07 06:51:20;;;;;;;18.40;7.68;;;;;;;0.27;100.00;100212.97;7400789;19;20138;-45
2022/01/07 06:53:49;;;;;;;9.15;4.50;;;;;;;0.20;100.00;100213.28;7400848;19;20134;-48
2022/01/07 06:56:21;;;;;;;13.50;5.95;;;;;;;0.22;100.00;100206.66;7397361;19;20190;-44
2022/01/07 06:58:51;;;;;;;19.77;9.43;;;;;;;0.23;100.00;100204.25;7398351;19;20161;-45
2022/01/07 07:01:20;;;;;;;19.58;6.70;;;;;;;0.18;100.00;100203.03;7398638;19;20182;-47
2022/01/07 07:03:50;;;;;;;21.15;8.10;;;;;;;0.16;100.00;100198.59;7400693;19;20616;-47
2022/01/07 07:06:19;;;;;;;17.25;9.30;;;;;;;0.13;100.00;100195.06;7397628;19;20179;-49
2022/01/07 07:08:49;;;;;;;9.27;4.88;;;;;;;0.12;100.00;100195.81;7398502;19;20161;-47
2022/01/07 07:11:18;;;;;;;9.98;4.57;;;;;;;0.11;100.00;100186.44;7393844;19;20129;-46
2022/01/07 07:13:50;;;;;;;16.85;9.18;;;;;;;0.18;100.00;100191.97;7399744;19;20174;-46
2022/01/07 07:16:20;;;;;;;20.35;9.45;;;;;;;0.10;100.00;100186.34;7401356;19;20390;-49
2022/01/07 07:18:50;;;;;;;17.98;9.73;;;;;;;0.19;100.00;100192.09;7398183;19;20210;-47
2022/01/07 07:21:20;;;;;;;11.77;6.05;;;;;;;0.09;100.00;100194.72;7397774;19;20144;-49
2022/01/07 07:23:49;;;;;;;16.92;8.85;;;;;;;0.10;100.00;100184.69;7400206;19;20167;-47
2022/01/07 07:26:19;;;;;;;18.65;8.80;;;;;;;0.15;100.00;100189.22;7393767;19;20178;-52
2022/01/07 07:28:51;;;;;;;14.10;7.20;;;;;;;0.07;100.00;100184.47;7398552;19;20159;-47
2022/01/07 07:31:21;;;;;;;7.78;5.05;;;;;;;0.02;100.00;100188.31;7393080;19;20182;-47
2022/01/07 07:36:35;;;;;;;19.23;6.85;;;;;;;0.11;100.00;100178.84;7393972;19;20549;-49
2022/01/07 07:39:07;;;;;;;10.45;6.45;;;;;;;0.07;100.00;100187.00;7402564;19;20163;-46
2022/01/07 07:41:38;;;;;;;9.13;5.30;;;;;;;0.06;100.00;100180.13;7394059;19;20196;-47
2022/01/07 07:44:10;;;;;;;17.42;9.25;;;;;;;0.08;100.00;100176.09;7399267;19;20119;-50
2022/01/07 07:46:41;;;;;;;19.70;9.40;;;;;;;0.13;100.00;100182.38;7394958;19;20190;-46
2022/01/07 07:49:12;;;;;;;22.77;8.48;;;;;;;0.16;100.00;100175.75;7397966;19;20440;-47
2022/01/07 07:51:42;;;;;;;8.50;5.60;;;;;;;0.15;100.00;100179.09;7394061;19;20186;-46
2022/01/07 07:54:12;;;;;;;15.10;5.55;;;;;;;0.18;100.00;100181.81;7399893;19;20190;-45
2022/01/07 07:56:42;;;;;;;17.38;5.55;;;;;;;0.19;100.00;100181.94;7395257;19;20186;-49
2022/01/07 07:59:14;;;;;;;19.10;9.90;;;;;;;0.24;100.00;100174.66;7397720;19;20210;-47
2022/01/07 08:01:44;;;;;;;10.60;5.32;;;;;;;0.24;100.00;100174.66;7394773;19;20182;-49
2022/01/07 08:04:15;;;;;;;23.42;10.65;;;;;;;0.30;100.00;100177.66;7399011;19;20376;-48
2022/01/07 08:06:45;;;;;;;19.58;8.85;;;;;;;0.30;100.00;100172.59;7395947;19;20202;-50
2022/01/07 08:09:15;;;;;;;21.63;8.95;;;;;;;0.29;100.00;100172.50;7397166;19;20159;-47
2022/01/07 08:11:53;;;;;;;21.77;9.25;;;;;;;0.34;100.00;100171.16;7393998;19;20438;-45
2022/01/07 08:17:07;;;;;;;20.35;9.10;;;;;;;0.30;100.00;100172.59;7392717;19;20189;-46
2022/01/07 08:19:37;;;;;;;13.48;6.95;;;;;;;0.35;100.00;100165.31;7397504;19;20159;-47
2022/01/07 08:22:08;;;;;;;23.60;11.18;;;;;;;0.38;100.00;100171.50;7395345;19;20238;-50
2022/01/07 08:24:39;;;;;;;26.60;8.35;;;;;;;0.29;100.00;100160.66;7399071;19;20123;-51
2022/01/07 08:27:08;;;;;;;16.08;9.70;;;;;;;0.28;100.00;100158.91;7394170;19;20262;-45
2022/01/07 08:30:09;;;;;;;17.95;8.20;;;;;;;0.24;100.00;100156.91;7399095;19;20424;-46
2022/01/07 08:35:21;;;;;;;39.33;16.38;;;;;;;0.48;100.00;100159.47;7398649;19;20119;-47
2022/01/07 08:37:51;;;;;;;12.90;8.25;;;;;;;0.37;100.00;100161.25;7393517;19;20193;-48
2022/01/07 08:40:20;;;;;;;13.27;6.80;;;;;;;0.38;100.00;100151.22;7398118;19;20123;-46
2022/01/07 08:42:49;;;;;;;18.88;7.88;;;;;;;0.35;100.00;100162.75;7399516;19;20190;-49
2022/01/07 08:45:22;;;;;;;19.73;8.15;;;;;;;0.38;100.00;100161.38;7405950;19;20119;-49
2022/01/07 08:47:51;;;;;;;17.73;9.32;;;;;;;0.37;100.00;100159.56;7400747;19;20196;-47
2022/01/07 08:50:21;;;;;;;16.50;8.63;;;;;;;0.21;100.00;100165.16;7405631;19;20123;-46
2022/01/07 08:52:50;;;;;;;12.98;5.38;;;;;;;0.12;100.00;100162.84;7401619;19;20208;-49
2022/01/07 08:55:20;;;;;;;22.45;12.15;;;;;;;0.13;100.00;100162.09;7405746;19;20195;-49
2022/01/07 08:57:49;;;;;;;19.10;8.98;;;;;;;0.15;100.00;100152.03;7400622;19;20547;-47
2022/01/07 09:00:24;;;;;;;20.38;10.18;;;;;;;0.18;100.00;100149.75;7405647;19;20475;-48
2022/01/07 09:02:53;;;;;;;16.10;8.15;;;;;;;0.05;100.00;100150.47;7404559;19;20178;-52
2022/01/07 09:05:23;;;;;;;16.55;8.00;;;;;;;0.01;100.00;100148.50;7405605;19;20127;-51
2022/01/07 09:07:52;;;;;;;20.35;9.27;;;;;;;-0.01;100.00;100148.38;7400306;19;20250;-46
2022/01/07 09:10:22;;;;;;;21.25;10.23;;;;;;;0.04;100.00;100148.72;7405396;19;20129;-50
2022/01/07 09:12:52;;;;;;;21.73;10.00;;;;;;;-0.02;100.00;100146.63;7400467;19;20455;-48
2022/01/07 09:15:24;;;;;;;20.20;10.77;;;;;;;-0.05;100.00;100142.97;7405118;19;20195;-47
2022/01/07 09:17:53;;;;;;;14.57;7.40;;;;;;;-0.05;100.00;100145.50;7402235;19;20194;-49
2022/01/07 09:20:23;;;;;;;16.35;8.88;;;;;;;-0.09;100.00;100141.84;7407890;19;20210;-51
2022/01/07 09:22:53;;;;;;;16.92;9.45;;;;;;;-0.09;100.00;100146.03;7401115;19;20186;-46
2022/01/07 09:25:23;;;;;;;14.43;8.57;;;;;;;-0.07;100.00;100141.94;7405211;19;20131;-49
2022/01/07 09:27:52;;;;;;;15.57;8.05;;;;;;;-0.09;100.00;100136.78;7399714;19;20440;-46
2022/01/07 09:30:24;;;;;;;19.30;10.45;;;;;;;-0.01;100.00;100127.19;7408388;19;20522;-48
2022/01/07 09:32:54;;;;;;;21.90;10.73;;;;;;;-0.02;100.00;100127.97;7399694;19;20190;-47
2022/01/07 09:35:23;;;;;;;18.30;9.85;;;;;;;-0.04;100.00;100121.91;7405332;19;20134;-51
2022/01/07 09:37:53;;;;;;;18.65;9.40;;;;;;;0.03;100.00;100124.13;7398934;19;20211;-51
2022/01/07 09:40:23;;;;;;;16.60;9.57;;;;;;;0.01;100.00;100124.78;7404449;19;20183;-45
2022/01/07 09:42:57;;;;;;;16.15;8.00;;;;;;;0.01;100.00;100127.31;7399599;19;20246;-50
2022/01/07 09:45:30;;;;;;;21.83;10.55;;;;;;;0.04;100.00;100125.88;7404419;19;20392;-46
2022/01/07 09:48:01;;;;;;;20.20;11.05;;;;;;;0.01;100.00;100132.38;7398269;19;20486;-47
2022/01/07 09:50:32;;;;;;;16.08;7.30;;;;;;;-0.02;100.00;100117.81;7404130;19;20119;-49
2022/01/07 09:53:06;;;;;;;9.88;6.10;;;;;;;-0.02;100.00;100121.25;7397025;19;20580;-52
2022/01/07 09:55:37;;;;;;;16.40;8.07;;;;;;;-0.01;100.00;100120.47;7404099;19;20123;-49
2022/01/07 09:58:07;;;;;;;18.85;10.52;;;;;;;0.04;100.00;100118.25;7398640;19;20471;-46
2022/01/07 10:00:41;;;;;;;22.60;11.43;;;;;;;0.07;100.00;100108.34;7403994;19;20124;-47
2022/01/07 10:03:12;;;;;;;16.55;7.97;;;;;;;0.10;100.00;100108.56;7399637;19;20185;-48
2022/01/07 10:05:44;;;;;;;22.27;12.63;;;;;;;0.18;100.00;100110.78;7403469;19;20186;-49
2022/01/07 10:08:21;;;;;;;19.70;11.73;;;;;;;0.18;100.00;100110.78;7395062;19;20187;-49
2022/01/07 10:11:13;;;;;;;25.73;12.88;;;;;;;0.18;100.00;100108.25;7403098;19;20128;-53
2022/01/07 10:13:44;;;;;;;21.00;9.65;;;;;;;0.12;100.00;100101.94;7401814;19;20178;-51
2022/01/07 10:16:21;;;;;;;23.35;13.43;;;;;;;0.16;100.00;100109.78;7399604;19;20562;-52
2022/01/07 10:18:53;;;;;;;23.80;11.93;;;;;;;0.08;100.00;100099.97;7400443;19;20159;-48
2022/01/07 10:21:24;;;;;;;22.48;12.23;;;;;;;0.10;100.00;100105.16;7398726;19;20201;-49
2022/01/07 10:24:03;;;;;;;19.15;9.70;;;;;;;0.11;100.00;100102.72;7403750;19;20131;-48
2022/01/07 10:26:33;;;;;;;17.40;10.40;;;;;;;0.20;100.00;100099.97;7399620;19;20936;-51
2022/01/07 10:29:02;;;;;;;12.63;6.85;;;;;;;0.18;100.00;100095.56;7400690;19;20162;-47
2022/01/07 10:31:34;;;;;;;22.15;12.00;;;;;;;0.32;100.00;100088.94;7399730;19;20197;-49
2022/01/07 10:34:06;;;;;;;25.63;14.23;;;;;;;0.27;100.00;100088.63;7402720;19;20123;-51
2022/01/07 10:36:41;;;;;;;30.48;14.48;;;;;;;0.29;100.00;100087.06;7398551;19;20192;-48
2022/01/07 10:39:10;;;;;;;14.13;7.90;;;;;;;0.27;100.00;100091.16;7403868;19;20224;-49
2022/01/07 10:41:40;;;;;;;23.88;12.68;;;;;;;0.33;100.00;100086.53;7402047;19;20182;-54
2022/01/07 10:44:11;;;;;;;29.50;14.35;;;;;;;0.33;100.00;100086.53;7406385;19;20147;-51
2022/01/07 10:46:43;;;;;;;28.02;14.95;;;;;;;0.38;100.00;100087.75;7397877;19;20246;-46
2022/01/07 10:49:13;;;;;;;24.73;12.13;;;;;;;0.40;100.00;100076.03;7399781;19;20163;-50
2022/01/07 10:51:55;;;;;;;22.88;11.23;;;;;;;0.40;100.00;100073.50;7396619;19;20773;-47
2022/01/07 10:54:24;;;;;;;18.80;9.70;;;;;;;0.39;100.00;100076.81;7405440;19;20138;-49
2022/01/07 10:56:54;;;;;;;23.30;13.13;;;;;;;0.44;100.00;100068.63;7400254;19;20196;-49
2022/01/07 10:59:23;;;;;;;20.83;11.13;;;;;;;0.49;100.00;100068.22;7401476;19;20664;-51
2022/01/07 11:01:59;;;;;;;28.98;16.30;;;;;;;0.57;100.00;100066.22;7397377;19;20473;-48
2022/01/07 11:04:31;;;;;;;29.52;15.25;;;;;;;0.55;100.00;100066.88;7401448;19;20170;-46
2022/01/07 11:07:09;;;;;;;28.77;15.73;;;;;;;0.57;100.00;100061.13;7395448;19;20274;-53
2022/01/07 11:09:39;;;;;;;17.80;9.60;;;;;;;0.58;100.00;100067.09;7403066;19;20170;-48
2022/01/07 11:12:10;;;;;;;33.30;16.80;;;;;;;0.62;100.00;100053.84;7397057;19;20193;-48
2022/01/07 11:14:41;;;;;;;22.38;12.27;;;;;;;0.61;100.00;100065.63;7401087;19;20191;-50
2022/01/07 11:17:20;;;;;;;31.20;15.02;;;;;;;0.68;100.00;100059.34;7395572;19;20187;-46
2022/01/07 11:19:53;;;;;;;30.90;16.77;;;;;;;0.76;100.00;100067.47;7401518;19;20560;-51
2022/01/07 11:22:24;;;;;;;25.15;11.32;;;;;;;0.76;100.00;100062.41;7398289;19;20190;-49
2022/01/07 11:25:07;;;;;;;39.42;17.45;;;;;;;0.81;100.00;100058.53;7401009;19;20123;-54
2022/01/07 11:27:48;;;;;;;67.88;24.85;;;;;;;0.82;100.00;100057.75;7396034;19;20502;-52
2022/01/07 11:30:19;;;;;;;64.82;23.48;;;;;;;0.90;100.00;100055.75;7400551;19;20137;-48
2022/01/07 11:32:52;;;;;;;41.65;14.23;;;;;;;0.86;100.00;100057.19;7392596;19;20186;-51
2022/01/07 11:35:46;;;;;;;28.08;13.90;;;;;;;0.88;100.00;100047.16;7398015;19;20124;-47
2022/01/07 11:38:40;;;;;;;33.70;17.80;;;;;;;0.97;100.00;100057.94;7393470;19;20198;-52
2022/01/07 11:41:16;;;;;;;39.15;15.43;;;;;;;0.97;100.00;100057.06;7398783;19;20514;-49